sensor_id;sensor_type;location;lat;lon;timestamp;P1;durP1;ratioP1;P2;durP2;ratioP2
42742;SDS011;28397;44.552;-0.848;2022-08-18T00:02:06;3.95;;;2.33;;
42742;SDS011;28397;44.552;-0.848;2022-08-18T00:04:35;5.55;;;2.33;;
42742;SDS011;28397;44.552;-0.848;2022-08-18T00:07:07;5.85;;;2.20;;
42742;SDS011;28397;44.552;-0.848;2022-08-18T00:09:34;5.60;;;2.00;;
42742;SDS011;28397;44.552;-0.848;2022-08-18T00:12:03;6.03;;;2.33;;
42742;SDS011;28397;44.552;-0.848;2022-08-18T00:14:31;6.22;;;2.40;;
42742;SDS011;28397;44.552;-0.848;2022-08-18T00:16:57;5.03;;;2.50;;
42742;SDS011;28397;44.552;-0.848;2022-08-18T00:19:23;6.70;;;2.58;;
42742;SDS011;28397;44.552;-0.848;2022-08-18T00:21:49;5.70;;;2.65;;
42742;SDS011;28397;44.552;-0.848;2022-08-18T00:24:15;6.13;;;2.50;;
42742;SDS011;28397;44.552;-0.848;2022-08-18T00:26:40;5.82;;;2.50;;
42742;SDS011;28397;44.552;-0.848;2022-08-18T00:29:06;7.75;;;2.90;;
42742;SDS011;28397;44.552;-0.848;2022-08-18T00:31:32;5.53;;;2.17;;
42742;SDS011;28397;44.552;-0.848;2022-08-18T00:33:58;4.82;;;1.70;;
42742;SDS011;28397;44.552;-0.848;2022-08-18T00:36:24;4.60;;;1.90;;
42742;SDS011;28397;44.552;-0.848;2022-08-18T00:38:51;5.80;;;2.60;;
42742;SDS011;28397;44.552;-0.848;2022-08-18T00:41:17;7.85;;;2.28;;
42742;SDS011;28397;44.552;-0.848;2022-08-18T00:43:46;5.72;;;2.20;;
42742;SDS011;28397;44.552;-0.848;2022-08-18T00:46:18;6.55;;;2.13;;
42742;SDS011;28397;44.552;-0.848;2022-08-18T00:48:45;5.18;;;2.60;;
42742;SDS011;28397;44.552;-0.848;2022-08-18T00:51:14;4.85;;;2.67;;
42742;SDS011;28397;44.552;-0.848;2022-08-18T00:54:32;4.43;;;1.92;;
42742;SDS011;28397;44.552;-0.848;2022-08-18T00:56:51;6.60;;;2.10;;
42742;SDS011;28397;44.552;-0.848;2022-08-18T01:01:51;10.45;;;2.50;;
42742;SDS011;28397;44.552;-0.848;2022-08-18T01:04:23;50.83;;;4.75;;
42742;SDS011;28397;44.552;-0.848;2022-08-18T01:06:55;4.63;;;2.30;;
42742;SDS011;28397;44.552;-0.848;2022-08-18T01:09:24;4.82;;;2.13;;
42742;SDS011;28397;44.552;-0.848;2022-08-18T01:11:50;4.35;;;1.73;;
42742;SDS011;28397;44.552;-0.848;2022-08-18T01:14:16;4.63;;;2.00;;
42742;SDS011;28397;44.552;-0.848;2022-08-18T01:16:47;6.05;;;2.08;;
42742;SDS011;28397;44.552;-0.848;2022-08-18T01:19:33;3.30;;;1.90;;
42742;SDS011;28397;44.552;-0.848;2022-08-18T01:22:21;3.67;;;2.25;;
42742;SDS011;28397;44.552;-0.848;2022-08-18T01:24:50;5.85;;;2.67;;
42742;SDS011;28397;44.552;-0.848;2022-08-18T01:27:37;5.15;;;2.70;;
42742;SDS011;28397;44.552;-0.848;2022-08-18T01:30:06;5.05;;;2.30;;
42742;SDS011;28397;44.552;-0.848;2022-08-18T01:32:34;5.18;;;2.20;;
42742;SDS011;28397;44.552;-0.848;2022-08-18T01:35:01;8.00;;;2.65;;
42742;SDS011;28397;44.552;-0.848;2022-08-18T01:37:27;9.25;;;2.70;;
42742;SDS011;28397;44.552;-0.848;2022-08-18T01:39:54;6.90;;;2.88;;
42742;SDS011;28397;44.552;-0.848;2022-08-18T01:42:20;5.05;;;2.80;;
42742;SDS011;28397;44.552;-0.848;2022-08-18T01:44:46;4.80;;;2.60;;
42742;SDS011;28397;44.552;-0.848;2022-08-18T01:47:15;5.32;;;2.70;;
42742;SDS011;28397;44.552;-0.848;2022-08-18T01:49:42;6.38;;;2.90;;
42742;SDS011;28397;44.552;-0.848;2022-08-18T01:52:09;5.82;;;2.80;;
42742;SDS011;28397;44.552;-0.848;2022-08-18T01:54:41;4.65;;;2.75;;
42742;SDS011;28397;44.552;-0.848;2022-08-18T01:57:07;4.32;;;2.72;;
42742;SDS011;28397;44.552;-0.848;2022-08-18T01:59:37;7.40;;;3.03;;
42742;SDS011;28397;44.552;-0.848;2022-08-18T02:02:03;8.20;;;3.60;;
42742;SDS011;28397;44.552;-0.848;2022-08-18T02:04:30;7.55;;;3.65;;
42742;SDS011;28397;44.552;-0.848;2022-08-18T02:06:58;7.38;;;3.55;;
42742;SDS011;28397;44.552;-0.848;2022-08-18T02:09:25;6.40;;;3.13;;
42742;SDS011;28397;44.552;-0.848;2022-08-18T02:11:52;5.30;;;3.25;;
42742;SDS011;28397;44.552;-0.848;2022-08-18T02:14:17;6.68;;;4.03;;
42742;SDS011;28397;44.552;-0.848;2022-08-18T02:16:43;6.75;;;4.03;;
42742;SDS011;28397;44.552;-0.848;2022-08-18T02:19:09;8.20;;;5.85;;
42742;SDS011;28397;44.552;-0.848;2022-08-18T02:21:36;10.63;;;8.05;;
42742;SDS011;28397;44.552;-0.848;2022-08-18T02:24:02;11.77;;;7.68;;
42742;SDS011;28397;44.552;-0.848;2022-08-18T02:26:28;10.68;;;7.22;;
42742;SDS011;28397;44.552;-0.848;2022-08-18T02:28:54;9.73;;;7.05;;
42742;SDS011;28397;44.552;-0.848;2022-08-18T02:31:20;11.30;;;6.80;;
42742;SDS011;28397;44.552;-0.848;2022-08-18T02:33:47;8.82;;;7.22;;
42742;SDS011;28397;44.552;-0.848;2022-08-18T02:36:13;12.93;;;6.38;;
42742;SDS011;28397;44.552;-0.848;2022-08-18T02:38:39;8.30;;;5.78;;
42742;SDS011;28397;44.552;-0.848;2022-08-18T02:41:07;12.80;;;6.03;;
42742;SDS011;28397;44.552;-0.848;2022-08-18T02:43:35;6.85;;;5.68;;
42742;SDS011;28397;44.552;-0.848;2022-08-18T02:46:02;9.77;;;5.80;;
42742;SDS011;28397;44.552;-0.848;2022-08-18T02:48:28;8.25;;;5.75;;
42742;SDS011;28397;44.552;-0.848;2022-08-18T02:53:37;8.40;;;5.53;;
42742;SDS011;28397;44.552;-0.848;2022-08-18T02:58:52;6.75;;;5.10;;
42742;SDS011;28397;44.552;-0.848;2022-08-18T03:01:25;5.25;;;4.40;;
42742;SDS011;28397;44.552;-0.848;2022-08-18T03:03:53;9.43;;;5.70;;
42742;SDS011;28397;44.552;-0.848;2022-08-18T03:06:20;8.30;;;5.57;;
42742;SDS011;28397;44.552;-0.848;2022-08-18T03:08:46;7.68;;;5.05;;
42742;SDS011;28397;44.552;-0.848;2022-08-18T03:11:17;10.27;;;5.72;;
42742;SDS011;28397;44.552;-0.848;2022-08-18T03:13:46;7.40;;;5.32;;
42742;SDS011;28397;44.552;-0.848;2022-08-18T03:16:12;9.65;;;5.45;;
42742;SDS011;28397;44.552;-0.848;2022-08-18T03:18:39;7.60;;;5.50;;
42742;SDS011;28397;44.552;-0.848;2022-08-18T03:21:10;7.70;;;5.13;;
42742;SDS011;28397;44.552;-0.848;2022-08-18T03:23:37;8.77;;;5.90;;
42742;SDS011;28397;44.552;-0.848;2022-08-18T03:26:07;8.35;;;5.40;;
42742;SDS011;28397;44.552;-0.848;2022-08-18T03:28:36;8.57;;;5.05;;
42742;SDS011;28397;44.552;-0.848;2022-08-18T03:31:02;9.88;;;4.88;;
42742;SDS011;28397;44.552;-0.848;2022-08-18T03:33:29;9.73;;;5.00;;
42742;SDS011;28397;44.552;-0.848;2022-08-18T03:35:54;7.00;;;4.10;;
42742;SDS011;28397;44.552;-0.848;2022-08-18T03:38:20;8.68;;;4.80;;
42742;SDS011;28397;44.552;-0.848;2022-08-18T03:40:53;6.30;;;4.80;;
42742;SDS011;28397;44.552;-0.848;2022-08-18T03:43:18;9.10;;;5.28;;
42742;SDS011;28397;44.552;-0.848;2022-08-18T03:45:44;6.13;;;4.32;;
42742;SDS011;28397;44.552;-0.848;2022-08-18T03:48:10;9.80;;;5.68;;
42742;SDS011;28397;44.552;-0.848;2022-08-18T03:50:36;6.82;;;5.25;;
42742;SDS011;28397;44.552;-0.848;2022-08-18T03:53:02;7.57;;;5.05;;
42742;SDS011;28397;44.552;-0.848;2022-08-18T03:55:29;9.48;;;5.97;;
42742;SDS011;28397;44.552;-0.848;2022-08-18T03:57:59;7.45;;;5.70;;
42742;SDS011;28397;44.552;-0.848;2022-08-18T04:00:29;6.43;;;5.15;;
42742;SDS011;28397;44.552;-0.848;2022-08-18T04:02:56;8.30;;;4.72;;
42742;SDS011;28397;44.552;-0.848;2022-08-18T04:05:25;7.32;;;5.13;;
42742;SDS011;28397;44.552;-0.848;2022-08-18T04:07:52;9.35;;;6.35;;
42742;SDS011;28397;44.552;-0.848;2022-08-18T04:10:19;9.43;;;6.53;;
42742;SDS011;28397;44.552;-0.848;2022-08-18T04:12:45;8.70;;;6.88;;
42742;SDS011;28397;44.552;-0.848;2022-08-18T04:15:11;13.93;;;7.43;;
42742;SDS011;28397;44.552;-0.848;2022-08-18T04:17:37;10.07;;;7.30;;
42742;SDS011;28397;44.552;-0.848;2022-08-18T04:20:02;14.05;;;7.88;;
42742;SDS011;28397;44.552;-0.848;2022-08-18T04:22:29;14.20;;;8.23;;
42742;SDS011;28397;44.552;-0.848;2022-08-18T04:24:57;8.95;;;6.82;;
42742;SDS011;28397;44.552;-0.848;2022-08-18T04:27:25;10.70;;;8.20;;
42742;SDS011;28397;44.552;-0.848;2022-08-18T04:29:52;15.35;;;8.30;;
42742;SDS011;28397;44.552;-0.848;2022-08-18T04:32:20;16.40;;;10.43;;
42742;SDS011;28397;44.552;-0.848;2022-08-18T04:34:47;28.45;;;11.57;;
42742;SDS011;28397;44.552;-0.848;2022-08-18T04:37:13;17.75;;;10.52;;
42742;SDS011;28397;44.552;-0.848;2022-08-18T04:39:39;14.05;;;8.60;;
42742;SDS011;28397;44.552;-0.848;2022-08-18T04:42:06;14.80;;;7.75;;
42742;SDS011;28397;44.552;-0.848;2022-08-18T04:44:32;17.05;;;8.90;;
42742;SDS011;28397;44.552;-0.848;2022-08-18T04:47:01;12.20;;;8.63;;
42742;SDS011;28397;44.552;-0.848;2022-08-18T04:49:27;12.80;;;8.20;;
42742;SDS011;28397;44.552;-0.848;2022-08-18T04:51:56;13.68;;;7.60;;
42742;SDS011;28397;44.552;-0.848;2022-08-18T04:54:41;13.05;;;7.93;;
42742;SDS011;28397;44.552;-0.848;2022-08-18T04:57:08;11.57;;;7.30;;
42742;SDS011;28397;44.552;-0.848;2022-08-18T04:59:36;12.30;;;7.97;;
42742;SDS011;28397;44.552;-0.848;2022-08-18T05:02:04;10.95;;;8.40;;
42742;SDS011;28397;44.552;-0.848;2022-08-18T05:04:32;9.23;;;7.05;;
42742;SDS011;28397;44.552;-0.848;2022-08-18T05:06:59;8.10;;;6.90;;
42742;SDS011;28397;44.552;-0.848;2022-08-18T05:09:25;10.38;;;6.38;;
42742;SDS011;28397;44.552;-0.848;2022-08-18T05:11:51;8.48;;;6.78;;
42742;SDS011;28397;44.552;-0.848;2022-08-18T05:14:17;13.50;;;6.90;;
42742;SDS011;28397;44.552;-0.848;2022-08-18T05:16:44;7.75;;;6.28;;
42742;SDS011;28397;44.552;-0.848;2022-08-18T05:19:10;12.00;;;7.13;;
42742;SDS011;28397;44.552;-0.848;2022-08-18T05:21:36;10.80;;;6.70;;
42742;SDS011;28397;44.552;-0.848;2022-08-18T05:24:04;11.07;;;6.97;;
42742;SDS011;28397;44.552;-0.848;2022-08-18T05:26:31;11.45;;;6.97;;
42742;SDS011;28397;44.552;-0.848;2022-08-18T05:28:56;10.90;;;7.32;;
42742;SDS011;28397;44.552;-0.848;2022-08-18T05:31:23;9.30;;;6.78;;
42742;SDS011;28397;44.552;-0.848;2022-08-18T05:33:51;10.60;;;6.72;;
42742;SDS011;28397;44.552;-0.848;2022-08-18T05:42:17;9.43;;;7.10;;
42742;SDS011;28397;44.552;-0.848;2022-08-18T05:44:46;10.38;;;6.80;;
42742;SDS011;28397;44.552;-0.848;2022-08-18T05:50:09;10.65;;;6.63;;
42742;SDS011;28397;44.552;-0.848;2022-08-18T05:55:13;12.18;;;8.18;;
42742;SDS011;28397;44.552;-0.848;2022-08-18T05:58:08;11.77;;;8.10;;
42742;SDS011;28397;44.552;-0.848;2022-08-18T06:00:38;15.55;;;7.68;;
42742;SDS011;28397;44.552;-0.848;2022-08-18T06:03:20;11.90;;;8.00;;
42742;SDS011;28397;44.552;-0.848;2022-08-18T06:05:53;8.00;;;6.80;;
42742;SDS011;28397;44.552;-0.848;2022-08-18T06:08:27;8.95;;;6.93;;
42742;SDS011;28397;44.552;-0.848;2022-08-18T06:10:58;10.07;;;6.93;;
42742;SDS011;28397;44.552;-0.848;2022-08-18T06:13:23;9.25;;;6.72;;
42742;SDS011;28397;44.552;-0.848;2022-08-18T06:18:36;8.45;;;5.90;;
42742;SDS011;28397;44.552;-0.848;2022-08-18T06:24:28;9.88;;;6.43;;
42742;SDS011;28397;44.552;-0.848;2022-08-18T06:36:08;10.15;;;5.30;;
42742;SDS011;28397;44.552;-0.848;2022-08-18T06:41:20;11.13;;;6.30;;
42742;SDS011;28397;44.552;-0.848;2022-08-18T06:46:41;7.82;;;6.05;;
42742;SDS011;28397;44.552;-0.848;2022-08-18T06:51:56;18.15;;;8.57;;
42742;SDS011;28397;44.552;-0.848;2022-08-18T06:54:26;9.50;;;6.85;;
42742;SDS011;28397;44.552;-0.848;2022-08-18T06:56:54;10.48;;;6.82;;
42742;SDS011;28397;44.552;-0.848;2022-08-18T06:59:29;7.90;;;6.05;;
42742;SDS011;28397;44.552;-0.848;2022-08-18T07:01:58;8.15;;;5.93;;
42742;SDS011;28397;44.552;-0.848;2022-08-18T07:04:29;7.95;;;5.85;;
42742;SDS011;28397;44.552;-0.848;2022-08-18T07:07:10;9.63;;;6.10;;
42742;SDS011;28397;44.552;-0.848;2022-08-18T07:09:41;5.63;;;4.80;;
42742;SDS011;28397;44.552;-0.848;2022-08-18T07:12:07;7.65;;;5.50;;
42742;SDS011;28397;44.552;-0.848;2022-08-18T07:14:45;10.73;;;5.03;;
42742;SDS011;28397;44.552;-0.848;2022-08-18T07:17:29;7.70;;;4.45;;
42742;SDS011;28397;44.552;-0.848;2022-08-18T07:22:24;5.70;;;4.25;;
42742;SDS011;28397;44.552;-0.848;2022-08-18T07:24:51;7.20;;;5.20;;
42742;SDS011;28397;44.552;-0.848;2022-08-18T07:27:38;7.32;;;5.63;;
42742;SDS011;28397;44.552;-0.848;2022-08-18T07:30:10;6.47;;;4.90;;
42742;SDS011;28397;44.552;-0.848;2022-08-18T07:32:43;7.78;;;4.80;;
42742;SDS011;28397;44.552;-0.848;2022-08-18T07:35:14;6.45;;;4.88;;
42742;SDS011;28397;44.552;-0.848;2022-08-18T07:40:37;6.10;;;3.75;;
42742;SDS011;28397;44.552;-0.848;2022-08-18T07:43:21;4.03;;;2.75;;
42742;SDS011;28397;44.552;-0.848;2022-08-18T07:45:54;5.22;;;3.00;;
42742;SDS011;28397;44.552;-0.848;2022-08-18T07:48:32;5.25;;;3.20;;
42742;SDS011;28397;44.552;-0.848;2022-08-18T07:51:10;7.95;;;3.10;;
42742;SDS011;28397;44.552;-0.848;2022-08-18T07:59:21;6.53;;;3.08;;
42742;SDS011;28397;44.552;-0.848;2022-08-18T08:07:31;4.13;;;2.10;;
42742;SDS011;28397;44.552;-0.848;2022-08-18T08:13:23;4.18;;;2.20;;
42742;SDS011;28397;44.552;-0.848;2022-08-18T08:18:42;3.47;;;2.00;;
42742;SDS011;28397;44.552;-0.848;2022-08-18T08:21:13;5.28;;;2.20;;
42742;SDS011;28397;44.552;-0.848;2022-08-18T08:31:48;3.22;;;1.75;;
42742;SDS011;28397;44.552;-0.848;2022-08-18T08:34:23;3.50;;;1.90;;
42742;SDS011;28397;44.552;-0.848;2022-08-18T08:37:04;4.72;;;2.00;;
42742;SDS011;28397;44.552;-0.848;2022-08-18T08:40:15;3.67;;;1.83;;
42742;SDS011;28397;44.552;-0.848;2022-08-18T08:42:30;2.92;;;1.80;;
42742;SDS011;28397;44.552;-0.848;2022-08-18T08:45:28;4.45;;;1.90;;
42742;SDS011;28397;44.552;-0.848;2022-08-18T08:47:59;4.95;;;2.00;;
42742;SDS011;28397;44.552;-0.848;2022-08-18T08:50:42;7.00;;;2.03;;
42742;SDS011;28397;44.552;-0.848;2022-08-18T08:53:30;3.53;;;1.90;;
42742;SDS011;28397;44.552;-0.848;2022-08-18T08:56:00;3.47;;;1.95;;
42742;SDS011;28397;44.552;-0.848;2022-08-18T09:01:30;4.28;;;2.00;;
42742;SDS011;28397;44.552;-0.848;2022-08-18T09:17:32;5.07;;;2.00;;
42742;SDS011;28397;44.552;-0.848;2022-08-18T09:23:24;4.45;;;2.28;;
42742;SDS011;28397;44.552;-0.848;2022-08-18T09:25:56;4.53;;;2.50;;
42742;SDS011;28397;44.552;-0.848;2022-08-18T09:38:51;5.18;;;2.10;;
42742;SDS011;28397;44.552;-0.848;2022-08-18T09:41:39;5.38;;;2.50;;
42742;SDS011;28397;44.552;-0.848;2022-08-18T09:49:50;5.65;;;2.45;;
42742;SDS011;28397;44.552;-0.848;2022-08-18T09:55:00;6.68;;;2.60;;
42742;SDS011;28397;44.552;-0.848;2022-08-18T09:57:31;5.55;;;2.70;;
42742;SDS011;28397;44.552;-0.848;2022-08-18T10:07:44;3.25;;;1.98;;
42742;SDS011;28397;44.552;-0.848;2022-08-18T10:15:42;3.45;;;1.88;;
42742;SDS011;28397;44.552;-0.848;2022-08-18T10:21:06;3.83;;;1.85;;
42742;SDS011;28397;44.552;-0.848;2022-08-18T10:37:13;3.85;;;2.20;;
42742;SDS011;28397;44.552;-0.848;2022-08-18T10:39:46;4.93;;;2.28;;
42742;SDS011;28397;44.552;-0.848;2022-08-18T10:45:05;3.08;;;2.17;;
42742;SDS011;28397;44.552;-0.848;2022-08-18T10:47:38;3.67;;;2.20;;
42742;SDS011;28397;44.552;-0.848;2022-08-18T10:50:17;5.65;;;2.58;;
42742;SDS011;28397;44.552;-0.848;2022-08-18T10:59:16;2.88;;;2.00;;
42742;SDS011;28397;44.552;-0.848;2022-08-18T11:04:33;4.13;;;2.40;;
42742;SDS011;28397;44.552;-0.848;2022-08-18T11:07:07;3.15;;;2.40;;
42742;SDS011;28397;44.552;-0.848;2022-08-18T11:09:41;3.15;;;2.40;;
42742;SDS011;28397;44.552;-0.848;2022-08-18T11:12:08;3.72;;;2.70;;
42742;SDS011;28397;44.552;-0.848;2022-08-18T11:20:12;4.90;;;3.50;;
42742;SDS011;28397;44.552;-0.848;2022-08-18T11:22:48;7.05;;;4.32;;
42742;SDS011;28397;44.552;-0.848;2022-08-18T11:25:19;4.72;;;3.10;;
42742;SDS011;28397;44.552;-0.848;2022-08-18T11:27:50;5.53;;;3.40;;
42742;SDS011;28397;44.552;-0.848;2022-08-18T11:30:16;4.15;;;2.88;;
42742;SDS011;28397;44.552;-0.848;2022-08-18T11:32:43;4.63;;;3.60;;
42742;SDS011;28397;44.552;-0.848;2022-08-18T11:42:57;6.72;;;4.40;;
42742;SDS011;28397;44.552;-0.848;2022-08-18T11:45:31;4.72;;;3.95;;
42742;SDS011;28397;44.552;-0.848;2022-08-18T11:48:21;5.07;;;3.90;;
42742;SDS011;28397;44.552;-0.848;2022-08-18T11:58:46;5.93;;;4.30;;
42742;SDS011;28397;44.552;-0.848;2022-08-18T12:03:58;4.63;;;3.58;;
42742;SDS011;28397;44.552;-0.848;2022-08-18T12:06:32;5.53;;;3.70;;
42742;SDS011;28397;44.552;-0.848;2022-08-18T12:09:04;4.70;;;3.60;;
42742;SDS011;28397;44.552;-0.848;2022-08-18T12:11:47;5.07;;;3.83;;
42742;SDS011;28397;44.552;-0.848;2022-08-18T12:14:17;6.13;;;3.80;;
42742;SDS011;28397;44.552;-0.848;2022-08-18T12:16:46;5.07;;;4.32;;
42742;SDS011;28397;44.552;-0.848;2022-08-18T12:19:12;4.57;;;3.67;;
42742;SDS011;28397;44.552;-0.848;2022-08-18T12:21:42;4.15;;;3.78;;
42742;SDS011;28397;44.552;-0.848;2022-08-18T12:24:31;4.75;;;3.30;;
42742;SDS011;28397;44.552;-0.848;2022-08-18T12:26:57;4.35;;;3.35;;
42742;SDS011;28397;44.552;-0.848;2022-08-18T12:29:24;4.20;;;3.60;;
42742;SDS011;28397;44.552;-0.848;2022-08-18T12:31:51;4.75;;;3.97;;
42742;SDS011;28397;44.552;-0.848;2022-08-18T12:34:19;4.30;;;3.60;;
42742;SDS011;28397;44.552;-0.848;2022-08-18T12:36:50;4.60;;;3.00;;
42742;SDS011;28397;44.552;-0.848;2022-08-18T12:39:18;3.33;;;2.90;;
42742;SDS011;28397;44.552;-0.848;2022-08-18T12:41:44;4.00;;;2.78;;
42742;SDS011;28397;44.552;-0.848;2022-08-18T12:44:09;4.00;;;2.92;;
42742;SDS011;28397;44.552;-0.848;2022-08-18T12:46:35;3.88;;;2.63;;
42742;SDS011;28397;44.552;-0.848;2022-08-18T12:49:01;4.25;;;2.90;;
42742;SDS011;28397;44.552;-0.848;2022-08-18T12:51:28;4.13;;;2.80;;
42742;SDS011;28397;44.552;-0.848;2022-08-18T12:53:54;4.80;;;2.90;;
42742;SDS011;28397;44.552;-0.848;2022-08-18T12:56:24;3.75;;;2.90;;
42742;SDS011;28397;44.552;-0.848;2022-08-18T12:58:54;3.47;;;2.90;;
42742;SDS011;28397;44.552;-0.848;2022-08-18T13:01:20;5.13;;;3.20;;
42742;SDS011;28397;44.552;-0.848;2022-08-18T13:03:46;4.03;;;3.13;;
42742;SDS011;28397;44.552;-0.848;2022-08-18T13:06:12;5.63;;;3.10;;
42742;SDS011;28397;44.552;-0.848;2022-08-18T13:08:39;3.67;;;3.00;;
42742;SDS011;28397;44.552;-0.848;2022-08-18T13:11:05;4.43;;;2.92;;
42742;SDS011;28397;44.552;-0.848;2022-08-18T13:13:35;3.72;;;3.10;;
42742;SDS011;28397;44.552;-0.848;2022-08-18T13:16:03;3.65;;;2.92;;
42742;SDS011;28397;44.552;-0.848;2022-08-18T13:18:30;4.85;;;3.70;;
42742;SDS011;28397;44.552;-0.848;2022-08-18T13:20:57;4.22;;;3.63;;
42742;SDS011;28397;44.552;-0.848;2022-08-18T13:23:23;5.45;;;3.75;;
42742;SDS011;28397;44.552;-0.848;2022-08-18T13:25:48;4.30;;;3.53;;
42742;SDS011;28397;44.552;-0.848;2022-08-18T13:28:14;5.47;;;3.75;;
42742;SDS011;28397;44.552;-0.848;2022-08-18T13:30:40;3.95;;;3.55;;
42742;SDS011;28397;44.552;-0.848;2022-08-18T13:33:05;4.30;;;3.67;;
42742;SDS011;28397;44.552;-0.848;2022-08-18T13:35:32;5.35;;;3.40;;
42742;SDS011;28397;44.552;-0.848;2022-08-18T13:37:58;4.18;;;3.42;;
42742;SDS011;28397;44.552;-0.848;2022-08-18T13:40:24;4.03;;;3.58;;
42742;SDS011;28397;44.552;-0.848;2022-08-18T13:42:49;4.53;;;3.03;;
42742;SDS011;28397;44.552;-0.848;2022-08-18T13:45:16;4.85;;;3.20;;
42742;SDS011;28397;44.552;-0.848;2022-08-18T13:47:44;3.90;;;3.47;;
42742;SDS011;28397;44.552;-0.848;2022-08-18T13:50:11;4.57;;;3.55;;
42742;SDS011;28397;44.552;-0.848;2022-08-18T13:52:37;3.90;;;3.50;;
42742;SDS011;28397;44.552;-0.848;2022-08-18T13:55:05;3.78;;;3.40;;
42742;SDS011;28397;44.552;-0.848;2022-08-18T13:57:33;4.90;;;3.20;;
42742;SDS011;28397;44.552;-0.848;2022-08-18T14:00:00;4.15;;;3.30;;
42742;SDS011;28397;44.552;-0.848;2022-08-18T14:02:25;5.13;;;3.20;;
42742;SDS011;28397;44.552;-0.848;2022-08-18T14:04:51;5.28;;;3.35;;
42742;SDS011;28397;44.552;-0.848;2022-08-18T14:07:19;4.88;;;3.05;;
42742;SDS011;28397;44.552;-0.848;2022-08-18T14:09:45;6.07;;;3.10;;
42742;SDS011;28397;44.552;-0.848;2022-08-18T14:12:21;4.32;;;3.00;;
42742;SDS011;28397;44.552;-0.848;2022-08-18T14:14:48;5.25;;;3.40;;
42742;SDS011;28397;44.552;-0.848;2022-08-18T14:17:15;4.32;;;3.03;;
42742;SDS011;28397;44.552;-0.848;2022-08-18T14:19:40;5.85;;;3.17;;
42742;SDS011;28397;44.552;-0.848;2022-08-18T14:22:25;6.28;;;2.90;;
42742;SDS011;28397;44.552;-0.848;2022-08-18T14:25:09;3.83;;;2.78;;
42742;SDS011;28397;44.552;-0.848;2022-08-18T14:27:53;4.82;;;2.95;;
42742;SDS011;28397;44.552;-0.848;2022-08-18T14:30:19;5.45;;;3.10;;
42742;SDS011;28397;44.552;-0.848;2022-08-18T14:32:45;6.45;;;2.97;;
42742;SDS011;28397;44.552;-0.848;2022-08-18T14:35:12;3.85;;;2.78;;
42742;SDS011;28397;44.552;-0.848;2022-08-18T14:37:40;4.60;;;2.72;;
42742;SDS011;28397;44.552;-0.848;2022-08-18T14:40:05;5.43;;;3.13;;
42742;SDS011;28397;44.552;-0.848;2022-08-18T14:42:32;4.05;;;2.70;;
42742;SDS011;28397;44.552;-0.848;2022-08-18T14:44:59;5.40;;;3.10;;
42742;SDS011;28397;44.552;-0.848;2022-08-18T14:47:25;5.80;;;2.85;;
42742;SDS011;28397;44.552;-0.848;2022-08-18T14:49:51;5.13;;;2.80;;
42742;SDS011;28397;44.552;-0.848;2022-08-18T14:52:18;6.47;;;3.13;;
42742;SDS011;28397;44.552;-0.848;2022-08-18T14:54:47;4.28;;;3.05;;
42742;SDS011;28397;44.552;-0.848;2022-08-18T14:57:13;4.18;;;2.83;;
42742;SDS011;28397;44.552;-0.848;2022-08-18T14:59:39;5.35;;;3.10;;
42742;SDS011;28397;44.552;-0.848;2022-08-18T15:02:05;5.85;;;2.75;;
42742;SDS011;28397;44.552;-0.848;2022-08-18T15:04:34;3.90;;;2.50;;
42742;SDS011;28397;44.552;-0.848;2022-08-18T15:07:00;3.38;;;2.47;;
42742;SDS011;28397;44.552;-0.848;2022-08-18T15:09:26;3.67;;;2.55;;
42742;SDS011;28397;44.552;-0.848;2022-08-18T15:11:55;5.72;;;2.70;;
42742;SDS011;28397;44.552;-0.848;2022-08-18T15:14:26;4.28;;;2.70;;
42742;SDS011;28397;44.552;-0.848;2022-08-18T15:16:55;3.83;;;2.70;;
42742;SDS011;28397;44.552;-0.848;2022-08-18T15:19:22;5.25;;;2.72;;
42742;SDS011;28397;44.552;-0.848;2022-08-18T15:21:49;5.05;;;2.63;;
42742;SDS011;28397;44.552;-0.848;2022-08-18T15:24:41;4.50;;;2.33;;
42742;SDS011;28397;44.552;-0.848;2022-08-18T15:27:30;5.22;;;2.13;;
42742;SDS011;28397;44.552;-0.848;2022-08-18T15:30:04;5.22;;;2.30;;
42742;SDS011;28397;44.552;-0.848;2022-08-18T15:32:32;3.15;;;2.42;;
42742;SDS011;28397;44.552;-0.848;2022-08-18T15:34:58;3.75;;;2.47;;
42742;SDS011;28397;44.552;-0.848;2022-08-18T15:37:24;4.25;;;2.10;;
42742;SDS011;28397;44.552;-0.848;2022-08-18T15:40:00;7.22;;;2.42;;
42742;SDS011;28397;44.552;-0.848;2022-08-18T15:42:41;3.90;;;2.30;;
42742;SDS011;28397;44.552;-0.848;2022-08-18T15:45:18;2.95;;;2.25;;
42742;SDS011;28397;44.552;-0.848;2022-08-18T15:47:49;3.70;;;2.40;;
42742;SDS011;28397;44.552;-0.848;2022-08-18T15:50:16;6.88;;;2.97;;
42742;SDS011;28397;44.552;-0.848;2022-08-18T15:52:49;4.70;;;2.55;;
42742;SDS011;28397;44.552;-0.848;2022-08-18T15:55:18;3.97;;;2.75;;
42742;SDS011;28397;44.552;-0.848;2022-08-18T15:57:45;5.43;;;2.78;;
42742;SDS011;28397;44.552;-0.848;2022-08-18T16:00:12;6.05;;;3.30;;
42742;SDS011;28397;44.552;-0.848;2022-08-18T16:02:41;5.72;;;3.40;;
42742;SDS011;28397;44.552;-0.848;2022-08-18T16:05:11;6.30;;;3.50;;
42742;SDS011;28397;44.552;-0.848;2022-08-18T16:07:37;7.05;;;3.40;;
42742;SDS011;28397;44.552;-0.848;2022-08-18T16:10:04;5.13;;;3.10;;
42742;SDS011;28397;44.552;-0.848;2022-08-18T16:12:30;3.60;;;3.30;;
42742;SDS011;28397;44.552;-0.848;2022-08-18T16:14:56;4.65;;;3.30;;
42742;SDS011;28397;44.552;-0.848;2022-08-18T16:17:21;4.65;;;3.55;;
42742;SDS011;28397;44.552;-0.848;2022-08-18T16:19:47;6.32;;;3.75;;
42742;SDS011;28397;44.552;-0.848;2022-08-18T16:22:13;4.65;;;3.45;;
42742;SDS011;28397;44.552;-0.848;2022-08-18T16:24:39;6.10;;;3.55;;
42742;SDS011;28397;44.552;-0.848;2022-08-18T16:27:05;4.50;;;3.65;;
42742;SDS011;28397;44.552;-0.848;2022-08-18T16:29:32;4.30;;;3.50;;
42742;SDS011;28397;44.552;-0.848;2022-08-18T16:31:58;5.65;;;3.78;;
42742;SDS011;28397;44.552;-0.848;2022-08-18T16:34:24;7.75;;;3.85;;
42742;SDS011;28397;44.552;-0.848;2022-08-18T16:36:51;6.07;;;3.38;;
42742;SDS011;28397;44.552;-0.848;2022-08-18T16:39:17;4.85;;;3.47;;
42742;SDS011;28397;44.552;-0.848;2022-08-18T16:41:42;5.72;;;3.80;;
42742;SDS011;28397;44.552;-0.848;2022-08-18T16:44:08;6.55;;;3.70;;
42742;SDS011;28397;44.552;-0.848;2022-08-18T16:46:34;4.85;;;4.22;;
42742;SDS011;28397;44.552;-0.848;2022-08-18T16:48:59;4.38;;;3.97;;
42742;SDS011;28397;44.552;-0.848;2022-08-18T16:51:30;5.65;;;4.18;;
42742;SDS011;28397;44.552;-0.848;2022-08-18T16:53:56;4.82;;;3.88;;
42742;SDS011;28397;44.552;-0.848;2022-08-18T16:56:23;6.10;;;4.13;;
42742;SDS011;28397;44.552;-0.848;2022-08-18T16:58:52;5.68;;;4.05;;
42742;SDS011;28397;44.552;-0.848;2022-08-18T17:01:36;4.57;;;3.90;;
42742;SDS011;28397;44.552;-0.848;2022-08-18T17:04:25;4.85;;;3.88;;
42742;SDS011;28397;44.552;-0.848;2022-08-18T17:06:52;5.32;;;3.95;;
42742;SDS011;28397;44.552;-0.848;2022-08-18T17:09:19;5.43;;;3.85;;
42742;SDS011;28397;44.552;-0.848;2022-08-18T17:11:45;5.07;;;3.97;;
42742;SDS011;28397;44.552;-0.848;2022-08-18T17:14:13;6.10;;;4.03;;
42742;SDS011;28397;44.552;-0.848;2022-08-18T17:16:39;6.25;;;4.22;;
42742;SDS011;28397;44.552;-0.848;2022-08-18T17:19:06;6.20;;;4.18;;
42742;SDS011;28397;44.552;-0.848;2022-08-18T17:21:33;5.47;;;4.30;;
42742;SDS011;28397;44.552;-0.848;2022-08-18T17:24:01;7.97;;;5.80;;
42742;SDS011;28397;44.552;-0.848;2022-08-18T17:32:13;5.85;;;4.85;;
42742;SDS011;28397;44.552;-0.848;2022-08-18T17:35:12;6.93;;;4.22;;
42742;SDS011;28397;44.552;-0.848;2022-08-18T17:37:51;8.93;;;4.95;;
42742;SDS011;28397;44.552;-0.848;2022-08-18T17:40:30;5.93;;;4.18;;
42742;SDS011;28397;44.552;-0.848;2022-08-18T17:43:22;7.10;;;4.80;;
42742;SDS011;28397;44.552;-0.848;2022-08-18T17:46:03;7.63;;;4.75;;
42742;SDS011;28397;44.552;-0.848;2022-08-18T17:48:50;7.43;;;4.97;;
42742;SDS011;28397;44.552;-0.848;2022-08-18T17:51:37;8.60;;;5.00;;
42742;SDS011;28397;44.552;-0.848;2022-08-18T17:54:38;7.97;;;4.53;;